Time;durP1;ratioP1;P1;durP2;ratioP2;P2;SDS_P1;SDS_P2;PMS_P1;PMS_P2;Temp;Humidity;BMP_temperature;BMP_pressure;BME280_temperature;BME280_humidity;BME280_pressure;Samples;Min_cycle;Max_cycle;Signal;HPM_P1;HPM_P2
2022/03/02 00:01:55;;;;;;;;;;;;;;;;;;5015266;28;19927;-23
2022/03/02 00:04:24;;;;;;;;;;;;;;;;;;5014950;28;19921;-23
2022/03/02 00:06:52;;;;;;;;;;;;;;;;;;5015420;28;20263;-23
2022/03/02 00:09:19;;;;;;;;;;;;;;;;;;4997752;28;19913;-24
2022/03/02 00:11:46;;;;;;;;;;;;;;;;;;5015103;28;19988;-24
2022/03/02 00:14:12;;;;;;;;;;;;;;;;;;4997648;28;19914;-24
2022/03/02 00:16:38;;;;;;;;;;;;;;;;;;5014965;28;19909;-24
2022/03/02 00:19:08;;;;;;;;;;;;;;;;;;5014980;28;19914;-24
2022/03/02 00:21:36;;;;;;;;;;;;;;;;;;5014897;28;19972;-23
2022/03/02 00:24:04;;;;;;;;;;;;;;;;;;4997517;28;19980;-23
2022/03/02 00:26:30;;;;;;;;;;;;;;;;;;4997696;28;19992;-23
2022/03/02 00:28:58;;;;;;;;;;;;;;;;;;5014953;28;19914;-23
2022/03/02 00:31:24;;;;;;;;;;;;;;;;;;5018957;28;19913;-23
2022/03/02 00:33:51;;;;;;;;;;;;;;;;;;5018839;28;19920;-24
2022/03/02 00:36:17;;;;;;;;;;;;;;;;;;5001471;28;19914;-24
2022/03/02 00:38:43;;;;;;;;;;;;;;;;;;5018805;28;19945;-23
2022/03/02 00:41:11;;;;;;;;;;;;;;;;;;5019038;28;19961;-23
2022/03/02 00:43:37;;;;;;;;;;;;;;;;;;5018571;28;19917;-23
2022/03/02 00:46:03;;;;;;;;;;;;;;;;;;5001347;28;19913;-23
2022/03/02 00:48:31;;;;;;;;;;;;;;;;;;5018639;28;19913;-23
2022/03/02 00:50:57;;;;;;;;;;;;;;;;;;5001179;28;19913;-23
2022/03/02 00:53:24;;;;;;;;;;;;;;;;;;5018711;28;19920;-23
2022/03/02 00:55:52;;;;;;;;;;;;;;;;;;5018547;28;20000;-23
2022/03/02 00:58:18;;;;;;;;;;;;;;;;;;5018433;28;19937;-24
2022/03/02 01:00:46;;;;;;;;;;;;;;;;;;5018680;28;19925;-25
2022/03/02 01:03:13;;;;;;;;;;;;;;;;;;5018245;28;19985;-24
2022/03/02 01:05:39;;;;;;;;;;;;;;;;;;5018030;28;19987;-23
2022/03/02 01:08:07;;;;;;;;;;;;;;;;;;5018320;28;19941;-23
2022/03/02 01:10:36;;;;;;;;;;;;;;;;;;5018315;28;19952;-23
2022/03/02 01:13:02;;;;;;;;;;;;;;;;;;5018102;28;19913;-23
2022/03/02 01:15:28;;;;;;;;;;;;;;;;;;5018150;28;19914;-23
2022/03/02 01:17:57;;;;;;;;;;;;;;;;;;5018131;28;19914;-23
2022/03/02 01:20:23;;;;;;;;;;;;;;;;;;5018007;28;19913;-23
2022/03/02 01:22:50;;;;;;;;;;;;;;;;;;5017842;28;19914;-23
2022/03/02 01:25:16;;;;;;;;;;;;;;;;;;5018179;28;19956;-23
2022/03/02 01:27:42;;;;;;;;;;;;;;;;;;5017982;28;19920;-24
2022/03/02 01:32:53;;;;;;;;;;;;;;;;;;5017519;28;19916;-24
2022/03/02 01:35:22;;;;;;;;;;;;;;;;;;5000403;28;20233;-23
2022/03/02 01:37:50;;;;;;;;;;;;;;;;;;5018024;28;19920;-24
2022/03/02 01:40:16;;;;;;;;;;;;;;;;;;5017095;28;19993;-24
2022/03/02 01:42:43;;;;;;;;;;;;;;;;;;5000106;28;19944;-24
2022/03/02 01:45:10;;;;;;;;;;;;;;;;;;5017537;28;19924;-23
2022/03/02 01:47:36;;;;;;;;;;;;;;;;;;5017573;28;20252;-24
2022/03/02 01:50:02;;;;;;;;;;;;;;;;;;5017564;28;19910;-24
2022/03/02 01:52:30;;;;;;;;;;;;;;;;;;5017929;28;19969;-24
2022/03/02 01:54:56;;;;;;;;;;;;;;;;;;5017508;28;20281;-24
2022/03/02 01:57:25;;;;;;;;;;;;;;;;;;5017461;28;19914;-23
2022/03/02 01:59:51;;;;;;;;;;;;;;;;;;5000033;28;19936;-23
2022/03/02 02:02:17;;;;;;;;;;;;;;;;;;4999770;28;19925;-24
2022/03/02 02:04:46;;;;;;;;;;;;;;;;;;5016801;28;20012;-24
2022/03/02 02:07:12;;;;;;;;;;;;;;;;;;4999898;28;19913;-23
2022/03/02 02:09:39;;;;;;;;;;;;;;;;;;5017098;28;20280;-23
2022/03/02 02:12:05;;;;;;;;;;;;;;;;;;5017183;28;19918;-23
2022/03/02 02:14:31;;;;;;;;;;;;;;;;;;5017085;28;20284;-23
2022/03/02 02:17:00;;;;;;;;;;;;;;;;;;5016987;28;20000;-23
2022/03/02 02:19:26;;;;;;;;;;;;;;;;;;5016952;28;19924;-23
2022/03/02 02:21:52;;;;;;;;;;;;;;;;;;5016787;28;20252;-24
2022/03/02 02:24:21;;;;;;;;;;;;;;;;;;5016850;28;19910;-23
2022/03/02 02:26:47;;;;;;;;;;;;;;;;;;5016807;28;20321;-23
2022/03/02 02:29:13;;;;;;;;;;;;;;;;;;5017044;28;19910;-24
2022/03/02 02:31:41;;;;;;;;;;;;;;;;;;5016614;28;19909;-23
2022/03/02 02:34:07;;;;;;;;;;;;;;;;;;5016647;28;20328;-23
2022/03/02 02:36:34;;;;;;;;;;;;;;;;;;5016935;28;19910;-23
2022/03/02 02:39:02;;;;;;;;;;;;;;;;;;5016614;28;19921;-23
2022/03/02 02:41:28;;;;;;;;;;;;;;;;;;5016374;28;20252;-23
2022/03/02 02:43:56;;;;;;;;;;;;;;;;;;5016721;28;20462;-23
2022/03/02 02:46:24;;;;;;;;;;;;;;;;;;4999082;28;19910;-23
2022/03/02 02:48:50;;;;;;;;;;;;;;;;;;5016444;28;20284;-23
2022/03/02 02:51:17;;;;;;;;;;;;;;;;;;5016409;28;19914;-24
2022/03/02 02:53:46;;;;;;;;;;;;;;;;;;5015619;28;19913;-23
2022/03/02 02:56:15;;;;;;;;;;;;;;;;;;5016331;28;20349;-24
2022/03/02 02:58:41;;;;;;;;;;;;;;;;;;5016240;28;19914;-23
2022/03/02 03:01:07;;;;;;;;;;;;;;;;;;5016451;28;19909;-23
2022/03/02 03:03:33;;;;;;;;;;;;;;;;;;5015943;28;19917;-26
2022/03/02 03:06:00;;;;;;;;;;;;;;;;;;5015908;28;20323;-23
2022/03/02 03:08:26;;;;;;;;;;;;;;;;;;5016015;28;20004;-23
2022/03/02 03:10:53;;;;;;;;;;;;;;;;;;5016019;28;20007;-23
2022/03/02 03:13:21;;;;;;;;;;;;;;;;;;5015888;28;20003;-23
2022/03/02 03:15:47;;;;;;;;;;;;;;;;;;5016173;28;19920;-24
2022/03/02 03:18:13;;;;;;;;;;;;;;;;;;5015881;28;19910;-23
2022/03/02 03:20:39;;;;;;;;;;;;;;;;;;4998516;28;20378;-23
2022/03/02 03:23:05;;;;;;;;;;;;;;;;;;5015939;28;19917;-23
2022/03/02 03:25:33;;;;;;;;;;;;;;;;;;5016047;28;20214;-24
2022/03/02 03:27:59;;;;;;;;;;;;;;;;;;4998347;28;19924;-24
2022/03/02 03:30:26;;;;;;;;;;;;;;;;;;5015649;28;20276;-23
2022/03/02 03:32:54;;;;;;;;;;;;;;;;;;5015839;28;20348;-23
2022/03/02 03:35:21;;;;;;;;;;;;;;;;;;5015571;28;20363;-23
2022/03/02 03:37:47;;;;;;;;;;;;;;;;;;5015786;28;19983;-23
2022/03/02 03:40:13;;;;;;;;;;;;;;;;;;5015826;28;19909;-23
2022/03/02 03:42:39;;;;;;;;;;;;;;;;;;4997985;28;19952;-23
2022/03/02 03:45:08;;;;;;;;;;;;;;;;;;5015684;28;19913;-23
2022/03/02 03:47:37;;;;;;;;;;;;;;;;;;5015376;28;20366;-23
2022/03/02 03:50:03;;;;;;;;;;;;;;;;;;5015650;28;19988;-23
2022/03/02 03:52:29;;;;;;;;;;;;;;;;;;5015212;28;19913;-24
2022/03/02 03:54:55;;;;;;;;;;;;;;;;;;5015286;28;19968;-24
2022/03/02 03:57:21;;;;;;;;;;;;;;;;;;5015283;28;20300;-24
2022/03/02 03:59:48;;;;;;;;;;;;;;;;;;5015272;28;20386;-24
2022/03/02 04:02:14;;;;;;;;;;;;;;;;;;5015390;28;19917;-24
2022/03/02 04:04:41;;;;;;;;;;;;;;;;;;5014442;28;19981;-24
2022/03/02 04:07:10;;;;;;;;;;;;;;;;;;5015434;28;20012;-24
2022/03/02 04:09:36;;;;;;;;;;;;;;;;;;5015041;28;19914;-24
2022/03/02 04:12:02;;;;;;;;;;;;;;;;;;5015039;28;19924;-24
2022/03/02 04:14:31;;;;;;;;;;;;;;;;;;4997759;28;19941;-24
2022/03/02 04:16:57;;;;;;;;;;;;;;;;;;5015019;28;20264;-24
2022/03/02 04:19:24;;;;;;;;;;;;;;;;;;5015027;28;20293;-24
2022/03/02 04:21:51;;;;;;;;;;;;;;;;;;5014829;28;19976;-24
2022/03/02 04:24:17;;;;;;;;;;;;;;;;;;5015179;28;19910;-24
2022/03/02 04:26:43;;;;;;;;;;;;;;;;;;4997531;28;20359;-24
2022/03/02 04:29:10;;;;;;;;;;;;;;;;;;5015125;28;19962;-24
2022/03/02 04:31:36;;;;;;;;;;;;;;;;;;5014824;28;19972;-24
2022/03/02 04:34:08;;;;;;;;;;;;;;;;;;5015132;28;20244;-24
2022/03/02 04:36:34;;;;;;;;;;;;;;;;;;5014857;28;19932;-24
2022/03/02 04:39:03;;;;;;;;;;;;;;;;;;5014804;28;20300;-24
2022/03/02 04:41:29;;;;;;;;;;;;;;;;;;5014707;28;19939;-24
2022/03/02 04:43:59;;;;;;;;;;;;;;;;;;5014785;28;19996;-24
2022/03/02 04:46:28;;;;;;;;;;;;;;;;;;5014881;28;20000;-24
2022/03/02 04:48:54;;;;;;;;;;;;;;;;;;4997326;28;19917;-23
2022/03/02 04:51:21;;;;;;;;;;;;;;;;;;5014842;28;20247;-23
2022/03/02 04:53:51;;;;;;;;;;;;;;;;;;5014404;28;19913;-24
2022/03/02 04:56:18;;;;;;;;;;;;;;;;;;5014697;28;19909;-23
2022/03/02 04:58:44;;;;;;;;;;;;;;;;;;5014429;28;20367;-23
2022/03/02 05:01:13;;;;;;;;;;;;;;;;;;5014514;28;20251;-24
2022/03/02 05:03:42;;;;;;;;;;;;;;;;;;5014030;28;20399;-23
2022/03/02 05:06:08;;;;;;;;;;;;;;;;;;4993593;28;19948;-24
2022/03/02 05:08:34;;;;;;;;;;;;;;;;;;4994784;28;20317;-24
2022/03/02 05:11:00;;;;;;;;;;;;;;;;;;4994863;28;20321;-24
2022/03/02 05:13:26;;;;;;;;;;;;;;;;;;4993435;28;19914;-25
2022/03/02 05:15:52;;;;;;;;;;;;;;;;;;4995778;28;19914;-24
2022/03/02 05:18:18;;;;;;;;;;;;;;;;;;4997888;28;19909;-26
2022/03/02 05:20:44;;;;;;;;;;;;;;;;;;4998286;28;20004;-25
2022/03/02 05:23:10;;;;;;;;;;;;;;;;;;4997821;28;20417;-25
2022/03/02 05:25:37;;;;;;;;;;;;;;;;;;4997209;28;20305;-25
2022/03/02 05:28:03;;;;;;;;;;;;;;;;;;4998733;28;20000;-25
2022/03/02 05:30:29;;;;;;;;;;;;;;;;;;4998193;28;20248;-25
2022/03/02 05:32:55;;;;;;;;;;;;;;;;;;4997789;28;19976;-25
2022/03/02 05:35:21;;;;;;;;;;;;;;;;;;4996635;28;19993;-25
2022/03/02 05:37:47;;;;;;;;;;;;;;;;;;4997720;28;19921;-25
2022/03/02 05:40:13;;;;;;;;;;;;;;;;;;4997384;28;19914;-25
2022/03/02 05:42:39;;;;;;;;;;;;;;;;;;4997529;28;19918;-25
2022/03/02 05:45:05;;;;;;;;;;;;;;;;;;4997602;28;20000;-25
2022/03/02 05:47:31;;;;;;;;;;;;;;;;;;4996233;28;19949;-24
2022/03/02 05:49:57;;;;;;;;;;;;;;;;;;4996158;28;19918;-24
2022/03/02 05:52:24;;;;;;;;;;;;;;;;;;4997226;28;20249;-24
2022/03/02 05:54:50;;;;;;;;;;;;;;;;;;4997119;28;19910;-24
2022/03/02 05:57:16;;;;;;;;;;;;;;;;;;4996302;28;19914;-26
2022/03/02 05:59:42;;;;;;;;;;;;;;;;;;4997076;28;19917;-26
2022/03/02 06:02:12;;;;;;;;;;;;;;;;;;4997230;28;19924;-26
2022/03/02 06:04:39;;;;;;;;;;;;;;;;;;5001859;28;19917;-26
2022/03/02 06:07:05;;;;;;;;;;;;;;;;;;5016707;28;19917;-28
2022/03/02 06:09:31;;;;;;;;;;;;;;;;;;5016760;28;19920;-25
2022/03/02 06:11:58;;;;;;;;;;;;;;;;;;4999412;28;20375;-25
2022/03/02 06:14:24;;;;;;;;;;;;;;;;;;5016748;28;19909;-25
2022/03/02 06:16:50;;;;;;;;;;;;;;;;;;5016827;28;19977;-26
2022/03/02 06:19:25;;;;;;;;;;;;;;;;;;5016669;28;19910;-26
2022/03/02 06:21:52;;;;;;;;;;;;;;;;;;5016399;28;19917;-26
2022/03/02 06:24:18;;;;;;;;;;;;;;;;;;5016620;28;19924;-26
2022/03/02 06:26:44;;;;;;;;;;;;;;;;;;5016302;28;20318;-26
2022/03/02 06:29:11;;;;;;;;;;;;;;;;;;5016268;28;19913;-26
2022/03/02 06:31:37;;;;;;;;;;;;;;;;;;5016340;28;19906;-26
2022/03/02 06:34:05;;;;;;;;;;;;;;;;;;5016200;28;19968;-26
2022/03/02 06:36:31;;;;;;;;;;;;;;;;;;5016081;28;19914;-26
2022/03/02 06:38:57;;;;;;;;;;;;;;;;;;5016036;28;20268;-26
2022/03/02 06:41:24;;;;;;;;;;;;;;;;;;5016383;28;19906;-25
2022/03/02 06:43:50;;;;;;;;;;;;;;;;;;5016245;28;19928;-27
2022/03/02 06:46:16;;;;;;;;;;;;;;;;;;5016052;28;20313;-24
2022/03/02 06:48:43;;;;;;;;;;;;;;;;;;5015580;28;19924;-25
2022/03/02 06:51:09;;;;;;;;;;;;;;;;;;5015707;28;19913;-25
2022/03/02 06:53:35;;;;;;;;;;;;;;;;;;5015326;28;19985;-26
2022/03/02 06:56:01;;;;;;;;;;;;;;;;;;5015931;28;19909;-26
2022/03/02 06:58:27;;;;;;;;;;;;;;;;;;4998157;28;19960;-26
2022/03/02 07:00:54;;;;;;;;;;;;;;;;;;5015602;28;19913;-25
2022/03/02 07:03:21;;;;;;;;;;;;;;;;;;5016015;28;20261;-25
2022/03/02 07:05:47;;;;;;;;;;;;;;;;;;5015516;28;19926;-25
2022/03/02 07:08:14;;;;;;;;;;;;;;;;;;5016109;28;19910;-25
2022/03/02 07:10:41;;;;;;;;;;;;;;;;;;5015290;28;19956;-25
2022/03/02 07:13:07;;;;;;;;;;;;;;;;;;5014861;28;20268;-25
2022/03/02 07:15:36;;;;;;;;;;;;;;;;;;5014812;28;19913;-25
2022/03/02 07:18:02;;;;;;;;;;;;;;;;;;5015060;28;19920;-25
2022/03/02 07:20:29;;;;;;;;;;;;;;;;;;5015027;28;20364;-25
2022/03/02 07:22:57;;;;;;;;;;;;;;;;;;5014946;28;19932;-32
2022/03/02 07:25:25;;;;;;;;;;;;;;;;;;5014281;28;22362;-25
2022/03/02 07:27:51;;;;;;;;;;;;;;;;;;5014542;28;20221;-26
2022/03/02 07:30:18;;;;;;;;;;;;;;;;;;5014631;28;19909;-25
2022/03/02 07:32:45;;;;;;;;;;;;;;;;;;5014732;28;19913;-25
2022/03/02 07:35:12;;;;;;;;;;;;;;;;;;5014675;28;19914;-25
2022/03/02 07:37:38;;;;;;;;;;;;;;;;;;5014439;28;19996;-25
2022/03/02 07:40:04;;;;;;;;;;;;;;;;;;5014728;28;19947;-25
2022/03/02 07:42:31;;;;;;;;;;;;;;;;;;5014522;28;20344;-25
2022/03/02 07:44:58;;;;;;;;;;;;;;;;;;5014746;28;20341;-25
2022/03/02 07:47:24;;;;;;;;;;;;;;;;;;5014942;28;19924;-25
2022/03/02 07:49:50;;;;;;;;;;;;;;;;;;5014813;28;19909;-25
2022/03/02 07:52:17;;;;;;;;;;;;;;;;;;5014818;28;19913;-25
2022/03/02 07:54:46;;;;;;;;;;;;;;;;;;5014567;28;20008;-25
2022/03/02 07:57:12;;;;;;;;;;;;;;;;;;4997143;28;19914;-25
2022/03/02 07:59:39;;;;;;;;;;;;;;;;;;5014769;28;19924;-25
2022/03/02 08:02:06;;;;;;;;;;;;;;;;;;5014606;28;19925;-25
2022/03/02 08:04:33;;;;;;;;;;;;;;;;;;5014589;28;19917;-25
2022/03/02 08:06:59;;;;;;;;;;;;;;;;;;5014589;28;19971;-25
2022/03/02 08:09:27;;;;;;;;;;;;;;;;;;5014596;28;20260;-25
2022/03/02 08:11:54;;;;;;;;;;;;;;;;;;5014739;28;19909;-24
2022/03/02 08:14:23;;;;;;;;;;;;;;;;;;5014462;28;19914;-25
2022/03/02 08:16:50;;;;;;;;;;;;;;;;;;5014673;28;19917;-25
2022/03/02 08:19:16;;;;;;;;;;;;;;;;;;5014481;28;19910;-25
2022/03/02 08:21:43;;;;;;;;;;;;;;;;;;5014270;28;20370;-26
2022/03/02 08:24:09;;;;;;;;;;;;;;;;;;5014485;28;20222;-26
2022/03/02 08:26:35;;;;;;;;;;;;;;;;;;5014528;28;19940;-26
2022/03/02 08:29:01;;;;;;;;;;;;;;;;;;5014437;28;20355;-26
2022/03/02 08:31:27;;;;;;;;;;;;;;;;;;4996876;28;19921;-24
2022/03/02 08:33:53;;;;;;;;;;;;;;;;;;5014415;28;19914;-24
2022/03/02 08:36:22;;;;;;;;;;;;;;;;;;5014592;28;20004;-24
2022/03/02 08:38:49;;;;;;;;;;;;;;;;;;5014176;28;20012;-24
2022/03/02 08:41:15;;;;;;;;;;;;;;;;;;5014114;28;20447;-26
2022/03/02 08:46:32;;;;;;;;;;;;;;;;;;5013924;28;19935;-26
2022/03/02 08:48:58;;;;;;;;;;;;;;;;;;5014133;28;19914;-25
2022/03/02 08:51:26;;;;;;;;;;;;;;;;;;5017225;28;19914;-26
2022/03/02 08:56:38;;;;;;;;;;;;;;;;;;5018315;28;19921;-26
2022/03/02 08:59:08;;;;;;;;;;;;;;;;;;5018428;28;19925;-25
2022/03/02 09:01:35;;;;;;;;;;;;;;;;;;5000498;28;19914;-25
2022/03/02 09:04:01;;;;;;;;;;;;;;;;;;5018032;28;20217;-25
2022/03/02 09:09:12;;;;;;;;;;;;;;;;;;5017541;28;19917;-23
2022/03/02 09:11:39;;;;;;;;;;;;;;;;;;5017431;28;19914;-24
2022/03/02 09:14:05;;;;;;;;;;;;;;;;;;5017480;28;19914;-24
2022/03/02 09:16:31;;;;;;;;;;;;;;;;;;5017472;28;19920;-24
2022/03/02 09:18:59;;;;;;;;;;;;;;;;;;5017662;28;19909;-24
2022/03/02 09:21:26;;;;;;;;;;;;;;;;;;5017505;28;19918;-24
2022/03/02 09:23:53;;;;;;;;;;;;;;;;;;5017141;28;19924;-24
2022/03/02 09:26:23;;;;;;;;;;;;;;;;;;5017287;28;20268;-24
2022/03/02 09:28:52;;;;;;;;;;;;;;;;;;5017489;28;20252;-24
2022/03/02 09:31:20;;;;;;;;;;;;;;;;;;5017282;28;20348;-24
2022/03/02 09:33:46;;;;;;;;;;;;;;;;;;5000465;28;19920;-24
2022/03/02 09:36:12;;;;;;;;;;;;;;;;;;5017094;28;19914;-24
2022/03/02 09:38:39;;;;;;;;;;;;;;;;;;5017002;28;20080;-25
2022/03/02 09:41:07;;;;;;;;;;;;;;;;;;5016447;28;20380;-25
2022/03/02 09:43:34;;;;;;;;;;;;;;;;;;5016233;28;20323;-25
2022/03/02 09:46:00;;;;;;;;;;;;;;;;;;5016505;28;20331;-25
2022/03/02 09:48:27;;;;;;;;;;;;;;;;;;4998822;28;20241;-25
2022/03/02 09:50:53;;;;;;;;;;;;;;;;;;5016272;28;20240;-24
2022/03/02 09:53:19;;;;;;;;;;;;;;;;;;4998691;28;19953;-24
2022/03/02 09:55:45;;;;;;;;;;;;;;;;;;4998701;28;19922;-24
2022/03/02 09:58:13;;;;;;;;;;;;;;;;;;5015903;28;19936;-26
2022/03/02 10:00:44;;;;;;;;;;;;;;;;;;4998371;28;19972;-25
2022/03/02 10:03:12;;;;;;;;;;;;;;;;;;5015448;28;19943;-25
2022/03/02 10:05:39;;;;;;;;;;;;;;;;;;5015722;28;19921;-24
2022/03/02 10:08:05;;;;;;;;;;;;;;;;;;4998445;28;20422;-26
2022/03/02 10:10:33;;;;;;;;;;;;;;;;;;5015936;28;20002;-25
2022/03/02 10:13:01;;;;;;;;;;;;;;;;;;5015623;28;19914;-24
2022/03/02 10:15:27;;;;;;;;;;;;;;;;;;5015835;28;19913;-24
2022/03/02 10:20:49;;;;;;;;;;;;;;;;;;5015838;28;19924;-28
2022/03/02 10:23:21;;;;;;;;;;;;;;;;;;4998770;28;19925;-24
2022/03/02 10:25:58;;;;;;;;;;;;;;;;;;5016363;28;19913;-25
2022/03/02 10:28:24;;;;;;;;;;;;;;;;;;5016485;28;19953;-25
2022/03/02 10:30:50;;;;;;;;;;;;;;;;;;5016317;28;19960;-25
2022/03/02 10:33:28;;;;;;;;;;;;;;;;;;4999011;28;19915;-25
2022/03/02 10:35:54;;;;;;;;;;;;;;;;;;5016284;28;19913;-25
2022/03/02 10:38:21;;;;;;;;;;;;;;;;;;4998649;28;19941;-25
2022/03/02 10:40:48;;;;;;;;;;;;;;;;;;5015878;28;20248;-26
2022/03/02 10:43:14;;;;;;;;;;;;;;;;;;5015963;28;19921;-26
2022/03/02 10:45:41;;;;;;;;;;;;;;;;;;5016064;28;19924;-26
2022/03/02 10:48:07;;;;;;;;;;;;;;;;;;5016274;28;20193;-26
2022/03/02 10:50:34;;;;;;;;;;;;;;;;;;5015874;28;19918;-26
2022/03/02 10:53:00;;;;;;;;;;;;;;;;;;4998510;28;20011;-26
2022/03/02 10:55:26;;;;;;;;;;;;;;;;;;5015695;28;19924;-25
2022/03/02 10:57:53;;;;;;;;;;;;;;;;;;5015689;28;20345;-24
2022/03/02 11:00:21;;;;;;;;;;;;;;;;;;5015890;28;19913;-25
2022/03/02 11:02:48;;;;;;;;;;;;;;;;;;4998236;28;19976;-25
2022/03/02 11:05:15;;;;;;;;;;;;;;;;;;5015388;28;19944;-25
2022/03/02 11:07:44;;;;;;;;;;;;;;;;;;5015707;28;19913;-25
2022/03/02 11:10:10;;;;;;;;;;;;;;;;;;5015701;28;19921;-26
2022/03/02 11:12:36;;;;;;;;;;;;;;;;;;4997664;28;19943;-26
2022/03/02 11:15:03;;;;;;;;;;;;;;;;;;5015277;28;19909;-26
2022/03/02 11:17:29;;;;;;;;;;;;;;;;;;4997907;28;20055;-26
2022/03/02 11:19:57;;;;;;;;;;;;;;;;;;5015457;28;19971;-26
2022/03/02 11:22:26;;;;;;;;;;;;;;;;;;5014995;28;19983;-27
2022/03/02 11:24:52;;;;;;;;;;;;;;;;;;5015029;28;19933;-27
2022/03/02 11:27:20;;;;;;;;;;;;;;;;;;5014613;28;20357;-27
2022/03/02 11:29:46;;;;;;;;;;;;;;;;;;4997462;28;20261;-25
2022/03/02 11:32:14;;;;;;;;;;;;;;;;;;5015111;28;19939;-25
2022/03/02 11:34:40;;;;;;;;;;;;;;;;;;4997618;28;19967;-25
2022/03/02 11:37:08;;;;;;;;;;;;;;;;;;5015166;28;19913;-26
2022/03/02 11:42:22;;;;;;;;;;;;;;;;;;5018318;28;19971;-26
2022/03/02 11:44:50;;;;;;;;;;;;;;;;;;5017985;28;20229;-26
2022/03/02 11:50:02;;;;;;;;;;;;;;;;;;5014666;28;20028;-26
2022/03/02 11:52:28;;;;;;;;;;;;;;;;;;5014357;28;20012;-25
2022/03/02 11:54:55;;;;;;;;;;;;;;;;;;5014684;28;20317;-26
2022/03/02 11:57:21;;;;;;;;;;;;;;;;;;5014101;28;20012;-26
2022/03/02 11:59:47;;;;;;;;;;;;;;;;;;4996511;28;20021;-25
2022/03/02 12:02:13;;;;;;;;;;;;;;;;;;5013955;28;20300;-25
2022/03/02 12:04:39;;;;;;;;;;;;;;;;;;5013792;28;19961;-25
2022/03/02 12:07:05;;;;;;;;;;;;;;;;;;4996514;28;19921;-36
2022/03/02 12:09:31;;;;;;;;;;;;;;;;;;5014062;28;19909;-25
2022/03/02 12:11:57;;;;;;;;;;;;;;;;;;5013783;28;20004;-26
2022/03/02 12:14:23;;;;;;;;;;;;;;;;;;5013774;28;19999;-23
2022/03/02 12:16:51;;;;;;;;;;;;;;;;;;5013623;28;20011;-24
2022/03/02 12:19:18;;;;;;;;;;;;;;;;;;5013824;28;20059;-24
2022/03/02 12:21:45;;;;;;;;;;;;;;;;;;5014035;28;19920;-25
2022/03/02 12:24:12;;;;;;;;;;;;;;;;;;5015858;28;19910;-24
2022/03/02 12:26:39;;;;;;;;;;;;;;;;;;5003527;28;19913;-24
2022/03/02 12:29:06;;;;;;;;;;;;;;;;;;5021305;28;19914;-25
2022/03/02 12:31:32;;;;;;;;;;;;;;;;;;5020949;28;19924;-25
2022/03/02 12:33:59;;;;;;;;;;;;;;;;;;5020876;28;19964;-24
2022/03/02 12:36:26;;;;;;;;;;;;;;;;;;5003935;28;19996;-25
2022/03/02 12:41:43;;;;;;;;;;;;;;;;;;5020940;28;20008;-25
2022/03/02 12:44:11;;;;;;;;;;;;;;;;;;5021027;28;19941;-24
2022/03/02 12:46:37;;;;;;;;;;;;;;;;;;5021068;28;19960;-25
2022/03/02 12:49:04;;;;;;;;;;;;;;;;;;5020970;28;19921;-24
2022/03/02 12:51:30;;;;;;;;;;;;;;;;;;5020862;28;20004;-25
2022/03/02 12:53:57;;;;;;;;;;;;;;;;;;5020772;28;20001;-24
2022/03/02 12:56:23;;;;;;;;;;;;;;;;;;5022259;28;19937;-25
2022/03/02 12:58:51;;;;;;;;;;;;;;;;;;5023960;28;19909;-25
2022/03/02 13:01:19;;;;;;;;;;;;;;;;;;5024159;28;19918;-25
2022/03/02 13:03:49;;;;;;;;;;;;;;;;;;5022876;28;20336;-25
2022/03/02 13:06:18;;;;;;;;;;;;;;;;;;5002615;28;20352;-25
2022/03/02 13:08:48;;;;;;;;;;;;;;;;;;5003275;28;19910;-25
2022/03/02 13:11:15;;;;;;;;;;;;;;;;;;5005483;28;20400;-33
2022/03/02 13:13:43;;;;;;;;;;;;;;;;;;5004166;28;19909;-25
2022/03/02 13:16:14;;;;;;;;;;;;;;;;;;5003317;28;19929;-35
2022/03/02 13:18:41;;;;;;;;;;;;;;;;;;5003348;28;20001;-25
2022/03/02 13:21:12;;;;;;;;;;;;;;;;;;5002063;28;19913;-24
2022/03/02 13:29:24;;;;;;;;;;;;;;;;;;5000877;28;20037;-25
2022/03/02 13:31:50;;;;;;;;;;;;;;;;;;5000817;28;20000;-26
2022/03/02 13:34:19;;;;;;;;;;;;;;;;;;5000839;28;19917;-26
2022/03/02 13:36:49;;;;;;;;;;;;;;;;;;4997789;28;20004;-26
2022/03/02 13:42:06;;;;;;;;;;;;;;;;;;4997500;28;20360;-25
2022/03/02 13:44:34;;;;;;;;;;;;;;;;;;4997464;28;19913;-26
2022/03/02 13:47:00;;;;;;;;;;;;;;;;;;4996571;28;20309;-25
2022/03/02 13:52:19;;;;;;;;;;;;;;;;;;4997813;28;19940;-25
2022/03/02 13:54:46;;;;;;;;;;;;;;;;;;4997382;28;19964;-26
2022/03/02 13:57:20;;;;;;;;;;;;;;;;;;4997194;28;20276;-25
2022/03/02 13:59:47;;;;;;;;;;;;;;;;;;4995977;28;19909;-25
2022/03/02 14:02:13;;;;;;;;;;;;;;;;;;4996772;28;19929;-25
2022/03/02 14:04:39;;;;;;;;;;;;;;;;;;5001758;28;19918;-25
2022/03/02 14:07:06;;;;;;;;;;;;;;;;;;5016910;28;19918;-25
2022/03/02 14:09:32;;;;;;;;;;;;;;;;;;5017005;28;19917;-25
2022/03/02 14:11:58;;;;;;;;;;;;;;;;;;5017199;28;19921;-25
2022/03/02 14:14:24;;;;;;;;;;;;;;;;;;5016764;28;19909;-25
2022/03/02 14:16:51;;;;;;;;;;;;;;;;;;5016806;28;19913;-25
2022/03/02 14:19:17;;;;;;;;;;;;;;;;;;4998935;28;20345;-24
2022/03/02 14:21:43;;;;;;;;;;;;;;;;;;5016578;28;19968;-25
2022/03/02 14:24:09;;;;;;;;;;;;;;;;;;5016586;28;19914;-25
2022/03/02 14:26:35;;;;;;;;;;;;;;;;;;4999274;28;19929;-25
2022/03/02 14:29:02;;;;;;;;;;;;;;;;;;4999402;28;19909;-24
2022/03/02 14:31:29;;;;;;;;;;;;;;;;;;5016288;28;19968;-24
2022/03/02 14:33:56;;;;;;;;;;;;;;;;;;4998973;28;19928;-24
2022/03/02 14:36:22;;;;;;;;;;;;;;;;;;5016489;28;19936;-24
2022/03/02 14:38:48;;;;;;;;;;;;;;;;;;5016255;28;20367;-24
2022/03/02 14:41:33;;;;;;;;;;;;;;;;;;5016116;28;20245;-24
2022/03/02 14:47:13;;;;;;;;;;;;;;;;;;4936249;29;19934;-24
2022/03/02 14:49:48;;;;;;;;;;;;;;;;;;5001783;28;19917;-24
2022/03/02 14:54:43;;;;;;;;;;;;;;;;;;4966749;28;20029;-24
2022/03/02 14:57:10;;;;;;;;;;;;;;;;;;4976999;28;20010;-24
2022/03/02 14:59:36;;;;;;;;;;;;;;;;;;4976799;28;19910;-24
2022/03/02 15:02:02;;;;;;;;;;;;;;;;;;4976752;28;19925;-24
2022/03/02 15:04:28;;;;;;;;;;;;;;;;;;4976651;28;20265;-24
2022/03/02 15:06:54;;;;;;;;;;;;;;;;;;4976641;28;20368;-24
2022/03/02 15:09:20;;;;;;;;;;;;;;;;;;4976600;28;19911;-23
2022/03/02 15:11:47;;;;;;;;;;;;;;;;;;4976528;28;20252;-24
2022/03/02 15:17:00;;;;;;;;;;;;;;;;;;4976267;28;19968;-23
2022/03/02 15:19:26;;;;;;;;;;;;;;;;;;4976078;28;19946;-24
2022/03/02 15:21:52;;;;;;;;;;;;;;;;;;4976098;28;19922;-24
2022/03/02 15:24:18;;;;;;;;;;;;;;;;;;4976528;28;19921;-24
2022/03/02 15:26:44;;;;;;;;;;;;;;;;;;4976378;28;19934;-24
2022/03/02 15:29:10;;;;;;;;;;;;;;;;;;4959397;28;19917;-24
2022/03/02 15:31:36;;;;;;;;;;;;;;;;;;4976345;28;20001;-24
2022/03/02 15:34:02;;;;;;;;;;;;;;;;;;4976239;28;19941;-24
2022/03/02 15:36:29;;;;;;;;;;;;;;;;;;4959455;28;19976;-24
2022/03/02 15:38:55;;;;;;;;;;;;;;;;;;4976092;28;20348;-24
2022/03/02 15:41:21;;;;;;;;;;;;;;;;;;4976304;28;19914;-24
2022/03/02 15:43:48;;;;;;;;;;;;;;;;;;4958734;28;19980;-24
2022/03/02 15:46:14;;;;;;;;;;;;;;;;;;4976227;28;20074;-24
2022/03/02 15:48:41;;;;;;;;;;;;;;;;;;4975987;28;20005;-24
2022/03/02 15:51:07;;;;;;;;;;;;;;;;;;4975996;28;19918;-24
2022/03/02 15:53:39;;;;;;;;;;;;;;;;;;4975441;28;20293;-23
2022/03/02 15:56:05;;;;;;;;;;;;;;;;;;4976347;28;19929;-23
2022/03/02 15:58:36;;;;;;;;;;;;;;;;;;4958860;28;19910;-23
2022/03/02 16:01:02;;;;;;;;;;;;;;;;;;4975636;28;19965;-23
2022/03/02 16:03:28;;;;;;;;;;;;;;;;;;4975760;28;20012;-23
2022/03/02 16:05:54;;;;;;;;;;;;;;;;;;4975731;28;19992;-23
2022/03/02 16:08:20;;;;;;;;;;;;;;;;;;4975805;28;19910;-23
2022/03/02 16:10:46;;;;;;;;;;;;;;;;;;4958393;28;19924;-23
2022/03/02 16:13:12;;;;;;;;;;;;;;;;;;4974829;28;20034;-23
2022/03/02 16:15:39;;;;;;;;;;;;;;;;;;4974948;28;19914;-24
2022/03/02 16:18:05;;;;;;;;;;;;;;;;;;4974807;28;20353;-24
2022/03/02 16:20:31;;;;;;;;;;;;;;;;;;4974963;28;20324;-25
2022/03/02 16:22:58;;;;;;;;;;;;;;;;;;4974484;28;19941;-24
2022/03/02 16:25:24;;;;;;;;;;;;;;;;;;4975003;28;19932;-24
2022/03/02 16:27:50;;;;;;;;;;;;;;;;;;4974675;28;19917;-24
2022/03/02 16:30:16;;;;;;;;;;;;;;;;;;4974615;28;19931;-24
2022/03/02 16:32:44;;;;;;;;;;;;;;;;;;4957404;28;19914;-25
2022/03/02 16:35:10;;;;;;;;;;;;;;;;;;4974810;28;20419;-24
2022/03/02 16:37:36;;;;;;;;;;;;;;;;;;4957759;28;19914;-24
2022/03/02 16:40:02;;;;;;;;;;;;;;;;;;4974936;28;20218;-24
2022/03/02 16:42:28;;;;;;;;;;;;;;;;;;4975139;28;19918;-24
2022/03/02 16:44:54;;;;;;;;;;;;;;;;;;4975337;28;20416;-25
2022/03/02 16:47:20;;;;;;;;;;;;;;;;;;4975386;28;19921;-24
2022/03/02 16:49:47;;;;;;;;;;;;;;;;;;4975638;28;20355;-24
2022/03/02 16:52:13;;;;;;;;;;;;;;;;;;4975577;28;20336;-24
2022/03/02 16:54:40;;;;;;;;;;;;;;;;;;4975204;28;19922;-24
2022/03/02 16:57:06;;;;;;;;;;;;;;;;;;4974880;28;20453;-24
2022/03/02 16:59:33;;;;;;;;;;;;;;;;;;4975238;28;19927;-25
2022/03/02 17:01:59;;;;;;;;;;;;;;;;;;4975677;28;20375;-24
2022/03/02 17:04:25;;;;;;;;;;;;;;;;;;4958194;28;19949;-25
2022/03/02 17:06:51;;;;;;;;;;;;;;;;;;4975288;28;19921;-24
2022/03/02 17:09:17;;;;;;;;;;;;;;;;;;4975331;28;20372;-24
2022/03/02 17:11:43;;;;;;;;;;;;;;;;;;4976776;28;20437;-24
2022/03/02 17:14:11;;;;;;;;;;;;;;;;;;4978952;28;20341;-24
2022/03/02 17:16:41;;;;;;;;;;;;;;;;;;4978560;28;19918;-25
2022/03/02 17:21:58;;;;;;;;;;;;;;;;;;4978916;28;19921;-24
2022/03/02 17:35:44;;;;;;;;;;;;;;;;;;5017371;28;19921;-25
2022/03/02 17:38:10;;;;;;;;;;;;;;;;;;5017148;28;19913;-25
2022/03/02 17:40:39;;;;;;;;;;;;;;;;;;5017223;28;20463;-25